Airfield :
LOGIN :

Register | Disclaimer

   EN    FR    IT 

 










Legend :    VFR   Marginal VFR   IFR   Intensive IFR   Very Intensive IFR
Visi :
Ceiling :
>= 8 km
>= 3000ft
5 to 8 km
1000 to 3000 ft
1500m to 5 km
500 to 1000 ft
800 to 1500m
200 to 500 ft
< 800m
< 200 ft
Symbols :   Thunderstorms  Fog  Heavy snow  Heavy precipitations  Wind > 20 kt
SIGMETs :     Misc.  Thunderstorms  Icing  Turbulence  Mountain Waves  Volcanic Ashes






- Airport Elevation : 364 ft
- IATA code : FRA


EDDF - Frankfurt Int.

CURRENT METAR :
  • 101850Z 07003KT 9999 FEW019 SCT040 10/08 Q1011 NOSIG

EXPIRED METARs :
  • 101820Z 08003KT 9999 FEW030 11/08 Q1011 NOSIG
  • 101750Z VRB01KT 9999 -RA FEW030 SCT040 11/08 Q1011 NOSIG
  • 101720Z VRB02KT 9999 FEW018 SCT032 12/07 Q1011 NOSIG
  • 101650Z 15003KT 130V200 9999 -RA FEW018 SCT029 BKN048 12/07 Q1011 NOSIG
  • 101620Z 19003KT 160V230 9999 FEW012 SCT029 BKN048 12/07 Q1012 NOSIG

TAF TAF EDDF
Valid from the 10 at 18:00 until the 12 at 00:00 UTC


101700Z 1018/1124 14005KT 9999 SCT045
BECMG 1021/1024 20006KT
TEMPO 1104/1111 BKN030
PROB30
TEMPO 1111/1116 20015G25KT 4000 SHRA BKN025CB
BECMG 1111/1114 31012KT
TEMPO 1116/1124 4000 RADZ SCT010 BKN020



MET'MAP, your aeronautical weather chart ! - Copyright ORBIFLY December 2007 - Disclaimer

ORBIFLY MET'MAP TEAM :

Programming & Development : Alexandra Zaïnal
Concept & original design : Baudouin d'Aumeries
Assistance for programming : Marc-Olivier Méhu
Technical & hardware support : Manuel Goepfert

Contact : metmap@orbifly.com




SOURCES & CREDITS :

   NOAA